sensor_id;sensor_type;location;lat;lon;timestamp;temperature;humidity
41447;DHT22;27185;52.040;4.490;2023-09-19T00:02:07;18.00;99.90
41447;DHT22;27185;52.040;4.490;2023-09-19T00:04:54;18.00;99.90
41447;DHT22;27185;52.040;4.490;2023-09-19T00:07:39;18.10;99.90
41447;DHT22;27185;52.040;4.490;2023-09-19T00:10:27;18.10;99.90
41447;DHT22;27185;52.040;4.490;2023-09-19T00:13:16;18.00;99.90
41447;DHT22;27185;52.040;4.490;2023-09-19T00:16:08;18.10;99.90
41447;DHT22;27185;52.040;4.490;2023-09-19T00:18:54;18.10;99.90
41447;DHT22;27185;52.040;4.490;2023-09-19T00:21:40;18.10;99.90
41447;DHT22;27185;52.040;4.490;2023-09-19T00:24:27;18.10;99.90
41447;DHT22;27185;52.040;4.490;2023-09-19T00:27:13;18.10;99.90
41447;DHT22;27185;52.040;4.490;2023-09-19T00:29:59;18.10;99.90
41447;DHT22;27185;52.040;4.490;2023-09-19T00:32:46;18.00;99.90
41447;DHT22;27185;52.040;4.490;2023-09-19T00:35:35;18.00;99.90
41447;DHT22;27185;52.040;4.490;2023-09-19T00:38:22;18.00;99.90
41447;DHT22;27185;52.040;4.490;2023-09-19T00:41:12;18.00;99.90
41447;DHT22;27185;52.040;4.490;2023-09-19T00:43:58;18.00;99.90
41447;DHT22;27185;52.040;4.490;2023-09-19T00:46:45;18.00;99.90
41447;DHT22;27185;52.040;4.490;2023-09-19T00:49:34;17.90;99.90
41447;DHT22;27185;52.040;4.490;2023-09-19T00:52:20;18.00;99.90
41447;DHT22;27185;52.040;4.490;2023-09-19T00:55:07;18.00;99.90
41447;DHT22;27185;52.040;4.490;2023-09-19T00:57:55;18.00;99.90
41447;DHT22;27185;52.040;4.490;2023-09-19T01:00:41;17.90;99.90
41447;DHT22;27185;52.040;4.490;2023-09-19T01:03:29;17.90;99.90
41447;DHT22;27185;52.040;4.490;2023-09-19T01:06:15;17.90;99.90
41447;DHT22;27185;52.040;4.490;2023-09-19T01:09:03;17.90;99.90
41447;DHT22;27185;52.040;4.490;2023-09-19T01:11:51;17.80;99.90
41447;DHT22;27185;52.040;4.490;2023-09-19T01:14:46;17.80;99.90
41447;DHT22;27185;52.040;4.490;2023-09-19T01:17:45;17.80;99.90
41447;DHT22;27185;52.040;4.490;2023-09-19T01:20:56;17.80;99.90
41447;DHT22;27185;52.040;4.490;2023-09-19T01:27:02;17.70;99.90
41447;DHT22;27185;52.040;4.490;2023-09-19T01:29:52;17.70;99.90
41447;DHT22;27185;52.040;4.490;2023-09-19T01:32:39;17.70;99.90
41447;DHT22;27185;52.040;4.490;2023-09-19T01:35:26;17.80;99.90
41447;DHT22;27185;52.040;4.490;2023-09-19T01:38:12;17.80;99.90
41447;DHT22;27185;52.040;4.490;2023-09-19T01:41:06;17.80;99.90
41447;DHT22;27185;52.040;4.490;2023-09-19T01:44:00;17.80;99.90
41447;DHT22;27185;52.040;4.490;2023-09-19T01:46:49;17.80;99.90
41447;DHT22;27185;52.040;4.490;2023-09-19T01:49:55;17.90;99.90
41447;DHT22;27185;52.040;4.490;2023-09-19T01:52:52;17.80;99.90
41447;DHT22;27185;52.040;4.490;2023-09-19T01:55:43;17.80;99.90
41447;DHT22;27185;52.040;4.490;2023-09-19T01:58:46;17.80;99.90
41447;DHT22;27185;52.040;4.490;2023-09-19T02:01:34;17.80;99.90
41447;DHT22;27185;52.040;4.490;2023-09-19T02:04:23;17.80;99.90
41447;DHT22;27185;52.040;4.490;2023-09-19T02:07:08;17.80;99.90
41447;DHT22;27185;52.040;4.490;2023-09-19T02:09:54;17.80;99.90
41447;DHT22;27185;52.040;4.490;2023-09-19T02:12:40;17.70;99.90
41447;DHT22;27185;52.040;4.490;2023-09-19T02:15:26;17.70;99.90
41447;DHT22;27185;52.040;4.490;2023-09-19T02:18:11;17.70;99.90
41447;DHT22;27185;52.040;4.490;2023-09-19T02:20:57;17.60;99.90
41447;DHT22;27185;52.040;4.490;2023-09-19T02:23:44;17.60;99.90
41447;DHT22;27185;52.040;4.490;2023-09-19T02:26:30;17.60;99.90
41447;DHT22;27185;52.040;4.490;2023-09-19T02:29:15;17.50;99.90
41447;DHT22;27185;52.040;4.490;2023-09-19T02:32:01;17.50;99.90
41447;DHT22;27185;52.040;4.490;2023-09-19T02:34:47;17.50;99.90
41447;DHT22;27185;52.040;4.490;2023-09-19T02:37:32;17.40;99.90
41447;DHT22;27185;52.040;4.490;2023-09-19T02:40:18;17.40;99.90
41447;DHT22;27185;52.040;4.490;2023-09-19T02:43:04;17.40;99.90
41447;DHT22;27185;52.040;4.490;2023-09-19T02:45:50;17.40;99.90
41447;DHT22;27185;52.040;4.490;2023-09-19T02:48:39;17.40;99.90
41447;DHT22;27185;52.040;4.490;2023-09-19T02:51:24;17.40;99.90
41447;DHT22;27185;52.040;4.490;2023-09-19T02:54:10;17.50;99.90
41447;DHT22;27185;52.040;4.490;2023-09-19T02:56:56;17.40;99.90
41447;DHT22;27185;52.040;4.490;2023-09-19T02:59:44;17.50;99.90
41447;DHT22;27185;52.040;4.490;2023-09-19T03:02:29;17.50;99.90
41447;DHT22;27185;52.040;4.490;2023-09-19T03:05:18;17.60;99.90
41447;DHT22;27185;52.040;4.490;2023-09-19T03:08:04;17.60;99.90
41447;DHT22;27185;52.040;4.490;2023-09-19T03:10:50;17.70;99.90
41447;DHT22;27185;52.040;4.490;2023-09-19T03:13:35;17.70;99.90
41447;DHT22;27185;52.040;4.490;2023-09-19T03:16:25;17.80;99.90
41447;DHT22;27185;52.040;4.490;2023-09-19T03:19:10;17.90;99.90
41447;DHT22;27185;52.040;4.490;2023-09-19T03:21:56;18.00;99.90
41447;DHT22;27185;52.040;4.490;2023-09-19T03:24:43;18.00;99.90
41447;DHT22;27185;52.040;4.490;2023-09-19T03:27:28;18.10;99.90
41447;DHT22;27185;52.040;4.490;2023-09-19T03:30:14;18.20;99.90
41447;DHT22;27185;52.040;4.490;2023-09-19T03:33:00;18.20;99.90
41447;DHT22;27185;52.040;4.490;2023-09-19T03:35:52;18.30;99.90
41447;DHT22;27185;52.040;4.490;2023-09-19T03:38:38;18.30;99.90
41447;DHT22;27185;52.040;4.490;2023-09-19T03:41:24;18.40;99.90
41447;DHT22;27185;52.040;4.490;2023-09-19T03:44:09;18.40;99.90
41447;DHT22;27185;52.040;4.490;2023-09-19T03:46:55;18.30;99.90
41447;DHT22;27185;52.040;4.490;2023-09-19T03:49:41;18.30;99.90
41447;DHT22;27185;52.040;4.490;2023-09-19T03:52:27;18.20;99.90
41447;DHT22;27185;52.040;4.490;2023-09-19T03:55:12;18.30;99.90
41447;DHT22;27185;52.040;4.490;2023-09-19T03:57:58;18.20;99.90
41447;DHT22;27185;52.040;4.490;2023-09-19T04:00:44;18.20;99.90
41447;DHT22;27185;52.040;4.490;2023-09-19T04:03:29;18.20;99.90
41447;DHT22;27185;52.040;4.490;2023-09-19T04:06:20;18.20;99.90
41447;DHT22;27185;52.040;4.490;2023-09-19T04:09:05;18.10;99.90
41447;DHT22;27185;52.040;4.490;2023-09-19T04:11:52;18.10;99.90
41447;DHT22;27185;52.040;4.490;2023-09-19T04:14:38;18.10;99.90
41447;DHT22;27185;52.040;4.490;2023-09-19T04:17:24;18.10;99.90
41447;DHT22;27185;52.040;4.490;2023-09-19T04:20:10;18.00;99.90
41447;DHT22;27185;52.040;4.490;2023-09-19T04:22:57;18.00;99.90
41447;DHT22;27185;52.040;4.490;2023-09-19T04:25:43;18.00;99.90
41447;DHT22;27185;52.040;4.490;2023-09-19T04:28:29;18.00;99.90
41447;DHT22;27185;52.040;4.490;2023-09-19T04:31:14;17.90;99.90
41447;DHT22;27185;52.040;4.490;2023-09-19T04:34:00;17.90;99.90
41447;DHT22;27185;52.040;4.490;2023-09-19T04:36:50;17.80;99.90
41447;DHT22;27185;52.040;4.490;2023-09-19T04:39:36;17.70;99.90
41447;DHT22;27185;52.040;4.490;2023-09-19T04:42:21;17.60;99.90
41447;DHT22;27185;52.040;4.490;2023-09-19T04:45:10;17.60;99.90
41447;DHT22;27185;52.040;4.490;2023-09-19T04:47:56;17.60;99.90
41447;DHT22;27185;52.040;4.490;2023-09-19T04:50:41;17.60;99.90
41447;DHT22;27185;52.040;4.490;2023-09-19T04:53:27;17.60;99.90
41447;DHT22;27185;52.040;4.490;2023-09-19T04:56:13;17.60;99.90
41447;DHT22;27185;52.040;4.490;2023-09-19T04:58:59;17.60;99.90
41447;DHT22;27185;52.040;4.490;2023-09-19T05:01:45;17.70;99.90
41447;DHT22;27185;52.040;4.490;2023-09-19T05:04:32;17.60;99.90
41447;DHT22;27185;52.040;4.490;2023-09-19T05:07:17;17.70;99.90
41447;DHT22;27185;52.040;4.490;2023-09-19T05:10:03;17.70;99.90
41447;DHT22;27185;52.040;4.490;2023-09-19T05:12:55;17.80;99.90
41447;DHT22;27185;52.040;4.490;2023-09-19T05:15:41;17.80;99.90
41447;DHT22;27185;52.040;4.490;2023-09-19T05:18:26;17.80;99.90
41447;DHT22;27185;52.040;4.490;2023-09-19T05:21:12;17.80;99.90
41447;DHT22;27185;52.040;4.490;2023-09-19T05:23:58;17.80;99.90
41447;DHT22;27185;52.040;4.490;2023-09-19T05:26:43;17.80;99.90
41447;DHT22;27185;52.040;4.490;2023-09-19T05:29:31;17.80;99.90
41447;DHT22;27185;52.040;4.490;2023-09-19T05:32:16;17.80;99.90
41447;DHT22;27185;52.040;4.490;2023-09-19T05:35:03;17.70;99.90
41447;DHT22;27185;52.040;4.490;2023-09-19T05:37:53;17.70;99.90
41447;DHT22;27185;52.040;4.490;2023-09-19T05:40:40;17.60;99.90
41447;DHT22;27185;52.040;4.490;2023-09-19T05:43:28;17.60;99.90
41447;DHT22;27185;52.040;4.490;2023-09-19T05:46:13;17.60;99.90
41447;DHT22;27185;52.040;4.490;2023-09-19T05:49:01;17.60;99.90
41447;DHT22;27185;52.040;4.490;2023-09-19T05:51:46;17.50;99.90
41447;DHT22;27185;52.040;4.490;2023-09-19T05:54:33;17.50;99.90
41447;DHT22;27185;52.040;4.490;2023-09-19T05:57:19;17.50;99.90
41447;DHT22;27185;52.040;4.490;2023-09-19T06:00:06;17.40;99.90
41447;DHT22;27185;52.040;4.490;2023-09-19T06:02:57;17.40;99.90
41447;DHT22;27185;52.040;4.490;2023-09-19T06:05:43;17.50;99.90
41447;DHT22;27185;52.040;4.490;2023-09-19T06:08:29;17.50;99.90
41447;DHT22;27185;52.040;4.490;2023-09-19T06:11:16;17.50;99.90
41447;DHT22;27185;52.040;4.490;2023-09-19T06:14:03;17.60;99.90
41447;DHT22;27185;52.040;4.490;2023-09-19T06:16:49;17.60;99.90
41447;DHT22;27185;52.040;4.490;2023-09-19T06:19:34;17.60;99.90
41447;DHT22;27185;52.040;4.490;2023-09-19T06:22:20;17.60;99.90
41447;DHT22;27185;52.040;4.490;2023-09-19T06:25:06;17.60;99.90
41447;DHT22;27185;52.040;4.490;2023-09-19T06:27:52;17.60;99.90
41447;DHT22;27185;52.040;4.490;2023-09-19T06:30:39;17.60;99.90
41447;DHT22;27185;52.040;4.490;2023-09-19T06:33:27;17.70;99.90
41447;DHT22;27185;52.040;4.490;2023-09-19T06:36:13;17.60;99.90
41447;DHT22;27185;52.040;4.490;2023-09-19T06:38:59;17.60;99.90
41447;DHT22;27185;52.040;4.490;2023-09-19T06:41:44;17.60;99.90
41447;DHT22;27185;52.040;4.490;2023-09-19T06:44:31;17.60;99.90
41447;DHT22;27185;52.040;4.490;2023-09-19T06:47:17;17.60;99.90
41447;DHT22;27185;52.040;4.490;2023-09-19T06:50:03;17.60;99.90
41447;DHT22;27185;52.040;4.490;2023-09-19T06:52:54;17.60;99.90
41447;DHT22;27185;52.040;4.490;2023-09-19T06:55:42;17.70;99.90
41447;DHT22;27185;52.040;4.490;2023-09-19T06:58:29;17.70;99.90
41447;DHT22;27185;52.040;4.490;2023-09-19T07:01:16;17.70;99.90
41447;DHT22;27185;52.040;4.490;2023-09-19T07:04:03;17.80;99.90
41447;DHT22;27185;52.040;4.490;2023-09-19T07:06:49;17.80;99.90
41447;DHT22;27185;52.040;4.490;2023-09-19T07:09:35;17.80;99.90
41447;DHT22;27185;52.040;4.490;2023-09-19T07:12:22;17.80;99.90
41447;DHT22;27185;52.040;4.490;2023-09-19T07:15:08;17.80;99.90
41447;DHT22;27185;52.040;4.490;2023-09-19T07:17:54;17.90;99.90
41447;DHT22;27185;52.040;4.490;2023-09-19T07:20:41;17.90;99.90
41447;DHT22;27185;52.040;4.490;2023-09-19T07:23:33;17.80;99.90
41447;DHT22;27185;52.040;4.490;2023-09-19T07:26:20;17.80;99.90
41447;DHT22;27185;52.040;4.490;2023-09-19T07:29:05;17.80;99.90
41447;DHT22;27185;52.040;4.490;2023-09-19T07:31:52;17.90;99.90
41447;DHT22;27185;52.040;4.490;2023-09-19T07:34:37;18.00;99.90
41447;DHT22;27185;52.040;4.490;2023-09-19T07:37:26;18.10;99.90
41447;DHT22;27185;52.040;4.490;2023-09-19T07:40:11;18.10;99.90
41447;DHT22;27185;52.040;4.490;2023-09-19T07:42:57;18.10;99.90
41447;DHT22;27185;52.040;4.490;2023-09-19T07:45:46;18.20;99.90
41447;DHT22;27185;52.040;4.490;2023-09-19T07:48:37;18.20;99.90
41447;DHT22;27185;52.040;4.490;2023-09-19T07:51:23;18.20;99.90
41447;DHT22;27185;52.040;4.490;2023-09-19T07:54:09;18.20;99.90
41447;DHT22;27185;52.040;4.490;2023-09-19T07:56:55;18.30;99.90
41447;DHT22;27185;52.040;4.490;2023-09-19T07:59:41;18.30;99.90
41447;DHT22;27185;52.040;4.490;2023-09-19T08:02:27;18.40;99.90
41447;DHT22;27185;52.040;4.490;2023-09-19T08:05:14;18.40;99.90
41447;DHT22;27185;52.040;4.490;2023-09-19T08:08:03;18.40;99.90
41447;DHT22;27185;52.040;4.490;2023-09-19T08:10:53;18.50;99.90
41447;DHT22;27185;52.040;4.490;2023-09-19T08:13:39;18.50;99.90
41447;DHT22;27185;52.040;4.490;2023-09-19T08:16:34;18.50;99.90
41447;DHT22;27185;52.040;4.490;2023-09-19T08:19:19;18.60;99.90
41447;DHT22;27185;52.040;4.490;2023-09-19T08:22:08;18.80;99.90
41447;DHT22;27185;52.040;4.490;2023-09-19T08:24:56;18.90;99.90
41447;DHT22;27185;52.040;4.490;2023-09-19T08:27:41;18.90;99.90
41447;DHT22;27185;52.040;4.490;2023-09-19T08:30:29;19.00;99.90
41447;DHT22;27185;52.040;4.490;2023-09-19T08:33:16;19.10;99.90
41447;DHT22;27185;52.040;4.490;2023-09-19T08:36:05;19.10;99.90
41447;DHT22;27185;52.040;4.490;2023-09-19T08:38:51;19.20;99.90
41447;DHT22;27185;52.040;4.490;2023-09-19T08:41:37;19.20;99.90
41447;DHT22;27185;52.040;4.490;2023-09-19T08:44:22;19.20;99.90
41447;DHT22;27185;52.040;4.490;2023-09-19T08:47:11;19.20;99.90
41447;DHT22;27185;52.040;4.490;2023-09-19T08:50:11;19.20;99.90
41447;DHT22;27185;52.040;4.490;2023-09-19T08:53:09;19.20;99.90
41447;DHT22;27185;52.040;4.490;2023-09-19T08:55:56;19.20;99.90
41447;DHT22;27185;52.040;4.490;2023-09-19T08:58:55;19.20;99.90
41447;DHT22;27185;52.040;4.490;2023-09-19T09:01:44;19.10;99.90
41447;DHT22;27185;52.040;4.490;2023-09-19T09:04:33;19.20;99.90
41447;DHT22;27185;52.040;4.490;2023-09-19T09:07:21;19.20;99.90
41447;DHT22;27185;52.040;4.490;2023-09-19T09:10:08;19.20;99.90
41447;DHT22;27185;52.040;4.490;2023-09-19T09:12:54;19.20;99.90
41447;DHT22;27185;52.040;4.490;2023-09-19T09:15:43;19.20;99.90
41447;DHT22;27185;52.040;4.490;2023-09-19T09:18:30;19.30;99.90
41447;DHT22;27185;52.040;4.490;2023-09-19T09:21:15;19.30;99.90
41447;DHT22;27185;52.040;4.490;2023-09-19T09:24:26;19.40;99.90
41447;DHT22;27185;52.040;4.490;2023-09-19T09:27:14;19.60;99.90
41447;DHT22;27185;52.040;4.490;2023-09-19T09:30:00;19.60;99.90
41447;DHT22;27185;52.040;4.490;2023-09-19T09:32:46;19.60;99.90
41447;DHT22;27185;52.040;4.490;2023-09-19T09:35:33;19.70;99.90
41447;DHT22;27185;52.040;4.490;2023-09-19T09:38:20;19.80;99.90
41447;DHT22;27185;52.040;4.490;2023-09-19T09:41:06;19.80;99.90
41447;DHT22;27185;52.040;4.490;2023-09-19T09:43:51;19.90;99.90
41447;DHT22;27185;52.040;4.490;2023-09-19T09:46:42;20.00;99.90
41447;DHT22;27185;52.040;4.490;2023-09-19T09:49:37;20.10;99.90
41447;DHT22;27185;52.040;4.490;2023-09-19T09:52:24;20.10;99.90
41447;DHT22;27185;52.040;4.490;2023-09-19T09:55:10;20.10;99.90
41447;DHT22;27185;52.040;4.490;2023-09-19T09:58:18;20.30;99.90
41447;DHT22;27185;52.040;4.490;2023-09-19T10:01:04;20.40;99.90
41447;DHT22;27185;52.040;4.490;2023-09-19T10:04:00;20.40;99.90
41447;DHT22;27185;52.040;4.490;2023-09-19T10:06:45;20.50;99.90
41447;DHT22;27185;52.040;4.490;2023-09-19T10:09:46;20.60;99.90
41447;DHT22;27185;52.040;4.490;2023-09-19T10:12:40;20.70;99.90
41447;DHT22;27185;52.040;4.490;2023-09-19T10:15:31;20.70;99.90
41447;DHT22;27185;52.040;4.490;2023-09-19T10:18:22;20.70;99.90
41447;DHT22;27185;52.040;4.490;2023-09-19T10:21:09;20.90;99.90
41447;DHT22;27185;52.040;4.490;2023-09-19T10:23:58;20.90;99.90
41447;DHT22;27185;52.040;4.490;2023-09-19T10:26:45;20.90;99.90
41447;DHT22;27185;52.040;4.490;2023-09-19T10:29:32;20.90;99.90
41447;DHT22;27185;52.040;4.490;2023-09-19T10:32:22;21.00;99.90
41447;DHT22;27185;52.040;4.490;2023-09-19T10:35:11;21.00;99.90
41447;DHT22;27185;52.040;4.490;2023-09-19T10:38:00;21.10;99.90
41447;DHT22;27185;52.040;4.490;2023-09-19T10:40:51;21.10;99.90
41447;DHT22;27185;52.040;4.490;2023-09-19T10:43:38;21.10;99.90
41447;DHT22;27185;52.040;4.490;2023-09-19T10:46:24;21.00;99.90
41447;DHT22;27185;52.040;4.490;2023-09-19T10:49:11;20.90;99.90
41447;DHT22;27185;52.040;4.490;2023-09-19T10:51:59;21.10;99.90
41447;DHT22;27185;52.040;4.490;2023-09-19T10:54:50;21.20;99.90
41447;DHT22;27185;52.040;4.490;2023-09-19T10:57:36;21.20;99.90
41447;DHT22;27185;52.040;4.490;2023-09-19T11:00:22;21.30;99.90
41447;DHT22;27185;52.040;4.490;2023-09-19T11:11:45;21.70;99.90
41447;DHT22;27185;52.040;4.490;2023-09-19T11:14:39;21.60;99.80
41447;DHT22;27185;52.040;4.490;2023-09-19T11:17:36;21.60;99.70
41447;DHT22;27185;52.040;4.490;2023-09-19T11:20:27;21.40;99.30
41447;DHT22;27185;52.040;4.490;2023-09-19T11:23:24;21.40;99.80
41447;DHT22;27185;52.040;4.490;2023-09-19T11:26:41;21.40;99.90
41447;DHT22;27185;52.040;4.490;2023-09-19T11:29:32;21.40;99.50
41447;DHT22;27185;52.040;4.490;2023-09-19T11:41:42;21.10;99.90
41447;DHT22;27185;52.040;4.490;2023-09-19T11:47:17;21.00;99.90
41447;DHT22;27185;52.040;4.490;2023-09-19T11:50:04;21.00;99.90
41447;DHT22;27185;52.040;4.490;2023-09-19T11:52:55;21.10;99.90
41447;DHT22;27185;52.040;4.490;2023-09-19T11:55:44;21.00;99.90
41447;DHT22;27185;52.040;4.490;2023-09-19T11:58:31;21.00;99.90
41447;DHT22;27185;52.040;4.490;2023-09-19T12:01:22;21.00;99.90
41447;DHT22;27185;52.040;4.490;2023-09-19T12:04:11;21.10;99.90
41447;DHT22;27185;52.040;4.490;2023-09-19T12:06:57;21.30;99.90
41447;DHT22;27185;52.040;4.490;2023-09-19T12:09:48;21.30;99.90
41447;DHT22;27185;52.040;4.490;2023-09-19T12:12:34;21.40;99.90
41447;DHT22;27185;52.040;4.490;2023-09-19T12:15:24;21.50;99.90
41447;DHT22;27185;52.040;4.490;2023-09-19T12:18:29;21.50;99.90
41447;DHT22;27185;52.040;4.490;2023-09-19T12:21:27;21.60;99.90
41447;DHT22;27185;52.040;4.490;2023-09-19T12:24:13;21.60;99.90
41447;DHT22;27185;52.040;4.490;2023-09-19T12:27:06;21.60;99.90
41447;DHT22;27185;52.040;4.490;2023-09-19T12:29:53;21.60;99.90
41447;DHT22;27185;52.040;4.490;2023-09-19T12:32:45;21.50;99.90
41447;DHT22;27185;52.040;4.490;2023-09-19T12:35:33;21.60;99.90
41447;DHT22;27185;52.040;4.490;2023-09-19T12:38:26;21.60;99.90
41447;DHT22;27185;52.040;4.490;2023-09-19T12:41:14;21.60;99.90
41447;DHT22;27185;52.040;4.490;2023-09-19T12:44:01;21.50;99.90
41447;DHT22;27185;52.040;4.490;2023-09-19T12:46:50;21.50;99.90
41447;DHT22;27185;52.040;4.490;2023-09-19T12:49:41;21.50;99.90
41447;DHT22;27185;52.040;4.490;2023-09-19T12:52:49;21.60;99.90
41447;DHT22;27185;52.040;4.490;2023-09-19T12:55:35;21.80;99.90
41447;DHT22;27185;52.040;4.490;2023-09-19T12:58:23;21.80;99.90
41447;DHT22;27185;52.040;4.490;2023-09-19T13:01:14;21.70;99.90
41447;DHT22;27185;52.040;4.490;2023-09-19T13:04:13;21.60;99.70
41447;DHT22;27185;52.040;4.490;2023-09-19T13:07:00;21.60;99.90
41447;DHT22;27185;52.040;4.490;2023-09-19T13:10:03;21.60;99.90
41447;DHT22;27185;52.040;4.490;2023-09-19T13:12:49;21.40;99.90
41447;DHT22;27185;52.040;4.490;2023-09-19T13:15:51;21.40;99.90
41447;DHT22;27185;52.040;4.490;2023-09-19T13:18:48;21.20;99.90
41447;DHT22;27185;52.040;4.490;2023-09-19T13:21:36;21.10;99.90
41447;DHT22;27185;52.040;4.490;2023-09-19T13:24:30;21.10;99.90
41447;DHT22;27185;52.040;4.490;2023-09-19T13:27:18;21.10;99.90
41447;DHT22;27185;52.040;4.490;2023-09-19T13:30:06;21.00;99.90
41447;DHT22;27185;52.040;4.490;2023-09-19T13:33:05;21.00;99.90
41447;DHT22;27185;52.040;4.490;2023-09-19T13:35:52;21.00;99.90
41447;DHT22;27185;52.040;4.490;2023-09-19T13:38:41;21.00;99.90
41447;DHT22;27185;52.040;4.490;2023-09-19T13:41:30;20.90;99.90
41447;DHT22;27185;52.040;4.490;2023-09-19T13:44:17;20.90;99.90
41447;DHT22;27185;52.040;4.490;2023-09-19T13:47:03;20.80;99.90
41447;DHT22;27185;52.040;4.490;2023-09-19T13:49:54;20.80;99.90
41447;DHT22;27185;52.040;4.490;2023-09-19T13:52:40;20.80;99.90
41447;DHT22;27185;52.040;4.490;2023-09-19T13:55:26;20.80;99.90
41447;DHT22;27185;52.040;4.490;2023-09-19T13:58:11;20.80;99.90
41447;DHT22;27185;52.040;4.490;2023-09-19T14:00:58;20.80;99.90
41447;DHT22;27185;52.040;4.490;2023-09-19T14:03:43;20.70;99.90
41447;DHT22;27185;52.040;4.490;2023-09-19T14:06:32;20.60;99.90
41447;DHT22;27185;52.040;4.490;2023-09-19T14:09:18;20.50;99.90
41447;DHT22;27185;52.040;4.490;2023-09-19T14:12:05;20.30;99.90
41447;DHT22;27185;52.040;4.490;2023-09-19T14:14:51;20.10;99.90
41447;DHT22;27185;52.040;4.490;2023-09-19T14:17:39;19.80;99.90
41447;DHT22;27185;52.040;4.490;2023-09-19T14:20:25;19.60;99.90
41447;DHT22;27185;52.040;4.490;2023-09-19T14:23:11;19.50;99.90
41447;DHT22;27185;52.040;4.490;2023-09-19T14:26:01;19.40;99.90
41447;DHT22;27185;52.040;4.490;2023-09-19T14:28:46;19.40;99.90
41447;DHT22;27185;52.040;4.490;2023-09-19T14:31:32;19.40;99.90
41447;DHT22;27185;52.040;4.490;2023-09-19T14:34:18;19.40;99.90
41447;DHT22;27185;52.040;4.490;2023-09-19T14:37:05;19.40;99.90
41447;DHT22;27185;52.040;4.490;2023-09-19T14:39:52;19.40;99.90
41447;DHT22;27185;52.040;4.490;2023-09-19T14:42:40;19.40;99.90
41447;DHT22;27185;52.040;4.490;2023-09-19T14:45:26;19.50;99.90
41447;DHT22;27185;52.040;4.490;2023-09-19T14:48:12;19.60;99.90
41447;DHT22;27185;52.040;4.490;2023-09-19T14:51:05;19.70;99.90
41447;DHT22;27185;52.040;4.490;2023-09-19T14:53:53;19.80;99.90
41447;DHT22;27185;52.040;4.490;2023-09-19T14:56:38;19.90;99.90
41447;DHT22;27185;52.040;4.490;2023-09-19T14:59:24;19.90;99.90
41447;DHT22;27185;52.040;4.490;2023-09-19T15:02:09;20.00;99.90
41447;DHT22;27185;52.040;4.490;2023-09-19T15:04:55;20.00;99.90
41447;DHT22;27185;52.040;4.490;2023-09-19T15:07:40;20.00;99.90
41447;DHT22;27185;52.040;4.490;2023-09-19T15:10:26;19.90;99.90
41447;DHT22;27185;52.040;4.490;2023-09-19T15:13:12;19.90;99.90
41447;DHT22;27185;52.040;4.490;2023-09-19T15:16:02;20.00;99.90
41447;DHT22;27185;52.040;4.490;2023-09-19T15:18:48;20.00;99.90
41447;DHT22;27185;52.040;4.490;2023-09-19T15:21:33;20.10;99.90
41447;DHT22;27185;52.040;4.490;2023-09-19T15:24:19;20.10;99.90
41447;DHT22;27185;52.040;4.490;2023-09-19T15:27:05;20.20;99.90
41447;DHT22;27185;52.040;4.490;2023-09-19T15:29:51;20.20;99.90
41447;DHT22;27185;52.040;4.490;2023-09-19T15:32:36;20.20;99.90
41447;DHT22;27185;52.040;4.490;2023-09-19T15:35:22;20.10;99.90
41447;DHT22;27185;52.040;4.490;2023-09-19T15:38:07;20.00;99.90
41447;DHT22;27185;52.040;4.490;2023-09-19T15:40:53;19.80;99.90
41447;DHT22;27185;52.040;4.490;2023-09-19T15:43:39;19.50;99.90
41447;DHT22;27185;52.040;4.490;2023-09-19T15:46:25;19.40;99.90
41447;DHT22;27185;52.040;4.490;2023-09-19T15:49:12;19.40;99.90
41447;DHT22;27185;52.040;4.490;2023-09-19T15:51:58;19.20;99.90
41447;DHT22;27185;52.040;4.490;2023-09-19T15:54:44;19.10;99.90
41447;DHT22;27185;52.040;4.490;2023-09-19T15:57:30;19.10;99.90
41447;DHT22;27185;52.040;4.490;2023-09-19T16:00:16;19.00;99.90
41447;DHT22;27185;52.040;4.490;2023-09-19T16:03:03;19.00;99.90
41447;DHT22;27185;52.040;4.490;2023-09-19T16:05:48;19.00;99.90
41447;DHT22;27185;52.040;4.490;2023-09-19T16:08:34;19.00;99.90
41447;DHT22;27185;52.040;4.490;2023-09-19T16:11:21;19.00;99.90
41447;DHT22;27185;52.040;4.490;2023-09-19T16:14:06;19.00;99.90
41447;DHT22;27185;52.040;4.490;2023-09-19T16:16:53;19.00;99.90
41447;DHT22;27185;52.040;4.490;2023-09-19T16:19:39;19.10;99.90
41447;DHT22;27185;52.040;4.490;2023-09-19T16:22:25;19.10;99.90
41447;DHT22;27185;52.040;4.490;2023-09-19T16:25:11;19.00;99.90
41447;DHT22;27185;52.040;4.490;2023-09-19T16:27:57;19.00;99.90
41447;DHT22;27185;52.040;4.490;2023-09-19T16:30:43;19.00;99.90
41447;DHT22;27185;52.040;4.490;2023-09-19T16:33:29;19.00;99.90
41447;DHT22;27185;52.040;4.490;2023-09-19T16:36:17;18.90;99.90
41447;DHT22;27185;52.040;4.490;2023-09-19T16:39:02;18.90;99.90
41447;DHT22;27185;52.040;4.490;2023-09-19T16:41:50;18.90;99.90
41447;DHT22;27185;52.040;4.490;2023-09-19T16:44:36;18.80;99.90
41447;DHT22;27185;52.040;4.490;2023-09-19T16:47:24;18.80;99.90
41447;DHT22;27185;52.040;4.490;2023-09-19T16:50:10;18.80;99.90
41447;DHT22;27185;52.040;4.490;2023-09-19T16:52:55;18.80;99.90
41447;DHT22;27185;52.040;4.490;2023-09-19T16:55:41;18.80;99.90
41447;DHT22;27185;52.040;4.490;2023-09-19T16:58:27;18.70;99.90
41447;DHT22;27185;52.040;4.490;2023-09-19T17:01:14;18.70;99.90
41447;DHT22;27185;52.040;4.490;2023-09-19T17:04:00;18.60;99.90
41447;DHT22;27185;52.040;4.490;2023-09-19T17:06:48;18.60;99.90
41447;DHT22;27185;52.040;4.490;2023-09-19T17:09:33;18.60;99.90
41447;DHT22;27185;52.040;4.490;2023-09-19T17:12:19;18.50;99.90
41447;DHT22;27185;52.040;4.490;2023-09-19T17:15:06;18.50;99.90
41447;DHT22;27185;52.040;4.490;2023-09-19T17:17:52;18.40;99.90
41447;DHT22;27185;52.040;4.490;2023-09-19T17:20:41;18.40;99.90
41447;DHT22;27185;52.040;4.490;2023-09-19T17:23:28;18.30;99.90
41447;DHT22;27185;52.040;4.490;2023-09-19T17:26:14;18.30;99.90
41447;DHT22;27185;52.040;4.490;2023-09-19T17:29:03;18.30;99.90
41447;DHT22;27185;52.040;4.490;2023-09-19T17:31:49;18.30;99.90
41447;DHT22;27185;52.040;4.490;2023-09-19T17:34:34;18.20;99.90
41447;DHT22;27185;52.040;4.490;2023-09-19T17:37:22;18.20;99.90
41447;DHT22;27185;52.040;4.490;2023-09-19T17:40:08;18.30;99.90
41447;DHT22;27185;52.040;4.490;2023-09-19T17:42:55;18.20;99.90
41447;DHT22;27185;52.040;4.490;2023-09-19T17:45:41;18.30;99.90
41447;DHT22;27185;52.040;4.490;2023-09-19T17:48:27;18.20;99.90
41447;DHT22;27185;52.040;4.490;2023-09-19T17:51:14;18.10;99.90
41447;DHT22;27185;52.040;4.490;2023-09-19T17:54:02;18.20;99.90
41447;DHT22;27185;52.040;4.490;2023-09-19T17:56:49;18.10;99.90
41447;DHT22;27185;52.040;4.490;2023-09-19T17:59:35;18.20;99.90
41447;DHT22;27185;52.040;4.490;2023-09-19T18:02:21;18.10;99.90
41447;DHT22;27185;52.040;4.490;2023-09-19T18:05:07;18.10;99.90